Terminal Aerodrome Forecast
Issued by NWS Portland, ME

Home | Current Version | Previous Version | Text Only | Print | Product List | Glossary On
Versions: 1 2 3 4 5 6 7 8 9 10 11 12 13 14 15 16 17 18 19
000
FTUS41 KGYX 261120
TAFPWM
TAF
KPWM 261120Z 2612/2712 VRB03KT 1/2SM -SHRA FG OVC003
     FM261400 26007KT P6SM BKN008 OVC050
     FM261700 26009G15KT P6SM BKN050
     FM270000 27007KT P6SM FEW250=

USA.gov is the U.S. government's official web portal to all federal, state and local government web resources and services.